Spencer, Iowa
Current Conditions -  °F | °C
As of 5:25 AM on Thursday 23 Oct 2014 (Local Time) from KSPW Reporting Station
Haze Haze  
Wind Chill: 54°   Ceiling: 200
Heat Index: 54°   Visibility: 0.75mi
Dew Point: 53°   Wind: 7mph
Humidity: 97%   Direction: 310°NW
Pressure: 30.01"   Gusts: NA
Location:  43.14°N, 95.14°W
Report Text: KSPW 231025Z AUTO 31006KT 3/4SM BR OVC002 12/12 A3001 RMK AO2 T01220117 TSNO
Loading
Personal Weather Stations






























Interactive Weather Map New forecast layout! Learn more

10-Day Weather Forecast

Advertisements
Track Severe Weather on mobile